Time;durP1;ratioP1;P1;durP2;ratioP2;P2;SDS_P1;SDS_P2;PMS_P1;PMS_P2;Temp;Humidity;BMP_temperature;BMP_pressure;BME280_temperature;BME280_humidity;BME280_pressure;Samples;Min_cycle;Max_cycle;Signal;HPM_P1;HPM_P2
2023/05/18 00:01:32;;;;;;;16.38;8.02;;;17.10;99.90;;;;;;4903311;29;20064;-75
2023/05/18 00:04:02;;;;;;;13.15;7.22;;;17.00;99.90;;;;;;4914903;29;20560;-75
2023/05/18 00:06:29;;;;;;;12.20;6.65;;;17.00;99.90;;;;;;4888183;29;20036;-75
2023/05/18 00:08:57;;;;;;;15.02;8.07;;;17.00;99.90;;;;;;4883938;29;20067;-73
2023/05/18 00:11:24;;;;;;;15.60;8.25;;;17.00;99.90;;;;;;4921458;29;20056;-75
2023/05/18 00:13:59;;;;;;;12.88;6.93;;;17.00;99.90;;;;;;4907475;29;20409;-73
2023/05/18 00:16:41;;;;;;;12.02;6.47;;;16.80;99.90;;;;;;4915531;29;20067;-71
2023/05/18 00:19:13;;;;;;;11.85;6.45;;;16.80;99.90;;;;;;4921080;29;20399;-73
2023/05/18 00:21:45;;;;;;;10.10;4.97;;;16.50;99.90;;;;;;4912999;29;20062;-75
2023/05/18 00:24:13;;;;;;;;;;;16.20;99.90;;;;;;4910010;29;20052;-74
2023/05/18 00:26:45;;;;;;;10.88;5.53;;;16.10;99.90;;;;;;4888671;29;19951;-78
2023/05/18 00:29:19;;;;;;;6.93;5.18;;;16.10;99.90;;;;;;4893926;29;20060;-80
2023/05/18 00:31:51;;;;;;;9.27;5.22;;;16.20;99.90;;;;;;4880023;29;20048;-75
2023/05/18 00:34:20;;;;;;;7.93;5.18;;;16.20;99.90;;;;;;4890869;29;20084;-75
2023/05/18 00:36:51;;;;;;;8.18;5.50;;;16.10;99.90;;;;;;4896039;29;20443;-74
2023/05/18 00:39:21;;;;;;;7.43;5.07;;;15.90;99.90;;;;;;4895404;29;20124;-71
2023/05/18 00:41:49;;;;;;;10.48;6.15;;;15.80;99.90;;;;;;4869838;29;20048;-72
2023/05/18 00:44:16;;;;;;;8.48;5.13;;;15.80;99.90;;;;;;4901091;29;20121;-69
2023/05/18 00:46:46;;;;;;;7.82;5.50;;;15.70;99.90;;;;;;4867096;29;20052;-73
2023/05/18 00:49:14;;;;;;;8.48;5.63;;;15.80;99.90;;;;;;4900466;29;20449;-71
2023/05/18 00:51:42;;;;;;;9.52;6.30;;;15.80;99.90;;;;;;4869827;29;20051;-78
2023/05/18 00:54:09;;;;;;;9.55;5.93;;;15.70;99.90;;;;;;4892076;29;20053;-72
2023/05/18 00:56:40;;;;;;;7.32;5.35;;;15.70;99.90;;;;;;4868257;29;20438;-73
2023/05/18 00:59:10;;;;;;;10.55;5.82;;;15.60;99.90;;;;;;4900366;29;20088;-72
2023/05/18 01:01:45;;;;;;;10.75;5.93;;;15.60;99.90;;;;;;4871118;29;20048;-72
2023/05/18 01:04:15;;;;;;;9.60;5.72;;;15.80;99.90;;;;;;4884820;29;20049;-74
2023/05/18 01:06:45;;;;;;;8.73;5.57;;;15.70;99.90;;;;;;4902217;29;20056;-70
2023/05/18 01:09:13;;;;;;;9.60;5.80;;;15.80;99.90;;;;;;4889490;29;20520;-75
2023/05/18 01:12:19;;;;;;;7.47;5.25;;;15.90;99.90;;;;;;4900905;29;20063;-71
2023/05/18 01:15:00;;;;;;;10.25;5.20;;;15.70;99.90;;;;;;4892412;29;20055;-73
2023/05/18 01:17:38;;;;;;;6.95;4.97;;;15.60;99.90;;;;;;4881918;29;20072;-71
2023/05/18 01:20:23;;;;;;;6.78;5.28;;;15.50;99.90;;;;;;4870114;29;20066;-78
2023/05/18 01:22:51;;;;;;;8.70;5.03;;;15.40;99.90;;;;;;4902355;29;20044;-75
2023/05/18 01:25:39;;;;;;;7.80;5.70;;;15.50;99.90;;;;;;4889546;29;20083;-74
2023/05/18 01:28:16;;;;;;;6.22;4.05;;;15.50;99.90;;;;;;4920636;29;20055;-74
2023/05/18 01:30:44;;;;;;;7.93;4.82;;;15.50;99.90;;;;;;4924676;29;20079;-73
2023/05/18 01:33:38;;;;;;;9.07;4.60;;;15.40;99.90;;;;;;4919945;29;20175;-72
2023/05/18 01:36:13;;;;;;;7.25;4.38;;;15.40;99.90;;;;;;4919576;29;20067;-75
2023/05/18 01:39:06;;;;;;;8.82;4.70;;;15.40;99.90;;;;;;4919474;29;20481;-75
2023/05/18 01:41:38;;;;;;;6.50;4.70;;;15.40;99.90;;;;;;4918322;29;20080;-70
2023/05/18 01:44:17;;;;;;;6.25;4.30;;;15.30;99.90;;;;;;4921003;29;20052;-72
2023/05/18 01:47:17;;;;;;;5.80;3.85;;;15.40;99.90;;;;;;4927748;29;20481;-74
2023/05/18 01:49:52;;;;;;;5.13;3.60;;;15.30;99.90;;;;;;4901855;29;20048;-72
2023/05/18 01:52:31;;;;;;;6.13;4.28;;;15.30;99.90;;;;;;4904186;29;20408;-73
2023/05/18 01:55:02;;;;;;;6.75;4.32;;;15.40;99.90;;;;;;4918560;29;20052;-78
2023/05/18 01:57:46;;;;;;;7.28;4.60;;;15.40;99.90;;;;;;4902779;29;20392;-70
2023/05/18 02:00:16;;;;;;;6.28;3.80;;;15.30;99.90;;;;;;4910332;29;20048;-76
2023/05/18 02:02:44;;;;;;;;;;;15.40;99.90;;;;;;4903929;29;20044;-71
2023/05/18 02:05:27;;;;;;;6.28;4.07;;;15.40;99.90;;;;;;4911239;29;19922;-74
2023/05/18 02:07:56;;;;;;;5.35;3.80;;;15.40;99.90;;;;;;4915981;29;20032;-69
2023/05/18 02:10:23;;;;;;;6.50;3.83;;;15.40;99.90;;;;;;4915628;29;20492;-74
2023/05/18 02:12:52;;;;;;;5.95;3.83;;;15.50;99.90;;;;;;4917194;29;20044;-73
2023/05/18 02:15:25;;;;;;;5.70;3.83;;;15.40;99.90;;;;;;4915464;29;20079;-73
2023/05/18 02:17:56;;;;;;;5.40;3.47;;;15.40;99.90;;;;;;4912956;29;20397;-69
2023/05/18 02:20:32;;;;;;;6.25;3.85;;;15.40;99.90;;;;;;4900923;29;20048;-75
2023/05/18 02:23:02;;;;;;;6.43;3.90;;;15.40;99.90;;;;;;4928913;29;20052;-71
2023/05/18 02:25:30;;;;;;;5.38;3.72;;;15.30;99.90;;;;;;4915232;29;20131;-76
2023/05/18 02:28:00;;;;;;;7.10;3.80;;;15.30;99.90;;;;;;4917165;29;20655;-72
2023/05/18 02:30:34;;;;;;;6.07;4.15;;;15.30;99.90;;;;;;4918732;29;20083;-75
2023/05/18 02:33:04;;;;;;;5.65;3.78;;;15.30;99.90;;;;;;4914658;29;20097;-77
2023/05/18 02:35:34;;;;;;;6.00;4.57;;;15.40;99.90;;;;;;4925152;29;20086;-73
2023/05/18 02:38:03;;;;;;;5.72;3.58;;;15.30;99.90;;;;;;4903242;29;20138;-77
2023/05/18 02:40:48;;;;;;;6.07;3.50;;;15.40;99.90;;;;;;4933789;29;20058;-72
2023/05/18 02:43:21;;;;;;;7.50;4.03;;;15.40;99.90;;;;;;4915128;29;20041;-75
2023/05/18 02:45:48;;;;;;;6.68;3.40;;;15.50;99.90;;;;;;4911922;29;20115;-78
2023/05/18 02:48:21;;;;;;;5.60;3.63;;;15.70;99.90;;;;;;4902235;29;20115;-71
2023/05/18 02:50:52;;;;;;;5.22;3.30;;;15.80;99.90;;;;;;4903170;29;20087;-76
2023/05/18 02:53:20;;;;;;;5.15;3.90;;;15.70;99.90;;;;;;4937919;23;20052;-73
2023/05/18 02:55:55;;;;;;;6.80;3.72;;;15.60;99.90;;;;;;4906726;28;20531;-72
2023/05/18 02:58:29;;;;;;;6.55;4.43;;;15.50;99.90;;;;;;4931896;29;20054;-72
2023/05/18 03:01:18;;;;;;;9.88;3.42;;;15.30;99.90;;;;;;4925443;28;20495;-75
2023/05/18 03:04:05;;;;;;;6.90;3.67;;;15.30;99.90;;;;;;4938509;28;20447;-76
2023/05/18 03:06:37;;;;;;;12.40;3.95;;;15.10;99.90;;;;;;4925443;29;20134;-74
2023/05/18 03:09:04;;;;;;;8.25;4.50;;;15.20;99.90;;;;;;4937140;28;20044;-72
2023/05/18 03:11:34;;;;;;;10.52;4.00;;;15.30;99.90;;;;;;4913214;29;20059;-68
2023/05/18 03:14:01;;;;;;;10.23;4.28;;;15.20;99.90;;;;;;4919625;29;20058;-70
2023/05/18 03:16:31;;;;;;;10.70;3.57;;;15.30;99.90;;;;;;4923572;28;20047;-70
2023/05/18 03:19:01;;;;;;;5.57;3.85;;;15.00;99.90;;;;;;4922046;29;20344;-71
2023/05/18 03:21:34;;;;;;;7.60;4.18;;;15.00;99.90;;;;;;4918944;28;20051;-71
2023/05/18 03:24:02;;;;;;;8.50;4.38;;;15.00;99.90;;;;;;4920759;29;20051;-73
2023/05/18 03:26:33;;;;;;;7.20;3.90;;;15.20;99.90;;;;;;4922206;28;20483;-71
2023/05/18 03:29:04;;;;;;;7.47;3.55;;;15.20;99.90;;;;;;4928196;29;20443;-74
2023/05/18 03:31:34;;;;;;;6.90;3.50;;;15.10;99.90;;;;;;4905045;29;20040;-71
2023/05/18 03:34:04;;;;;;;10.27;4.55;;;15.10;99.90;;;;;;4904045;29;20075;-73
2023/05/18 03:36:32;;;;;;;5.03;3.40;;;15.00;99.90;;;;;;4903265;29;20051;-70
2023/05/18 03:38:59;;;;;;;6.45;3.25;;;15.10;99.90;;;;;;4922064;29;20047;-72
2023/05/18 03:41:28;;;;;;;6.00;3.25;;;15.10;99.90;;;;;;4948506;28;20110;-72
2023/05/18 03:43:59;;;;;;;6.30;3.30;;;15.40;99.90;;;;;;4912097;29;20044;-70
2023/05/18 03:46:32;;;;;;;7.72;3.13;;;15.30;99.90;;;;;;4934900;28;20051;-76
2023/05/18 03:49:07;;;;;;;5.53;2.88;;;15.30;99.90;;;;;;4943306;29;20044;-73
2023/05/18 03:51:40;;;;;;;5.93;3.38;;;15.50;99.90;;;;;;4927560;29;20122;-74
2023/05/18 03:54:11;;;;;;;4.65;3.17;;;15.60;99.90;;;;;;4926900;28;20443;-72
2023/05/18 03:56:38;;;;;;;6.90;3.67;;;15.60;99.90;;;;;;4927865;28;20082;-74
2023/05/18 03:59:15;;;;;;;7.32;3.25;;;15.60;99.90;;;;;;4948130;28;20869;-75
2023/05/18 04:01:43;;;;;;;8.20;3.83;;;15.80;99.90;;;;;;4922967;29;20095;-75
2023/05/18 04:04:16;;;;;;;5.35;3.10;;;15.70;99.90;;;;;;4940115;29;20051;-76
2023/05/18 04:06:50;;;;;;;7.70;3.65;;;15.70;99.90;;;;;;4924098;29;20452;-74
2023/05/18 04:09:22;;;;;;;7.05;2.85;;;15.50;99.90;;;;;;4941987;29;20090;-72
2023/05/18 04:11:50;;;;;;;5.60;3.17;;;15.10;99.90;;;;;;4929830;29;20047;-73
2023/05/18 04:14:23;;;;;;;;;;;14.80;99.90;;;;;;4938815;29;20046;-72
2023/05/18 04:16:57;;;;;;;6.68;3.40;;;14.90;99.90;;;;;;4947483;28;19933;-75
2023/05/18 04:19:27;;;;;;;8.38;3.25;;;14.90;99.90;;;;;;4948921;28;20123;-73
2023/05/18 04:21:59;;;;;;;6.80;3.60;;;15.00;99.90;;;;;;4924877;29;20051;-74
2023/05/18 04:24:29;;;;;;;4.57;3.50;;;15.00;99.90;;;;;;4920115;29;20047;-73
2023/05/18 04:26:58;;;;;;;5.88;3.47;;;15.00;99.90;;;;;;4912305;29;20074;-73
2023/05/18 04:29:38;;;;;;;7.13;3.40;;;15.00;99.90;;;;;;4919219;28;20062;-76
2023/05/18 04:32:13;;;;;;;4.30;2.88;;;14.90;99.90;;;;;;4924169;29;20084;-70
2023/05/18 04:34:48;;;;;;;5.75;3.10;;;14.90;99.90;;;;;;4935732;29;20047;-73
2023/05/18 04:37:26;;;;;;;4.28;2.85;;;15.10;99.90;;;;;;4924150;29;20052;-75
2023/05/18 04:39:57;;;;;;;4.68;3.33;;;15.10;99.90;;;;;;4921877;28;20399;-71
2023/05/18 04:42:30;;;;;;;5.07;2.90;;;15.20;99.90;;;;;;4916791;29;20384;-75
2023/05/18 04:44:59;;;;;;;4.68;3.05;;;15.10;99.90;;;;;;4923830;29;20044;-73
2023/05/18 04:47:28;;;;;;;6.68;3.22;;;15.40;99.90;;;;;;4928527;29;20090;-74
2023/05/18 04:49:56;;;;;;;3.75;2.75;;;15.60;99.90;;;;;;4927708;29;20137;-76
2023/05/18 04:52:26;;;;;;;5.13;3.00;;;15.40;99.90;;;;;;4919662;29;20130;-71
2023/05/18 04:55:00;;;;;;;32.22;19.73;;;15.40;99.90;;;;;;4911635;29;20051;-71
2023/05/18 04:57:28;;;;;;;13.55;7.25;;;15.80;99.90;;;;;;4942121;28;20047;-72
2023/05/18 04:59:57;;;;;;;17.10;10.68;;;15.90;99.90;;;;;;4942310;28;20074;-71
2023/05/18 05:02:24;;;;;;;13.73;8.35;;;15.50;99.90;;;;;;4909702;28;20177;-74
2023/05/18 05:04:54;;;;;;;19.30;11.75;;;15.70;99.90;;;;;;4950984;28;20086;-72
2023/05/18 05:07:24;;;;;;;14.67;8.70;;;15.60;99.90;;;;;;4923782;29;20082;-72
2023/05/18 05:09:51;;;;;;;7.90;5.43;;;15.50;99.90;;;;;;4912521;29;20296;-70
2023/05/18 05:12:20;;;;;;;38.10;22.15;;;15.80;99.90;;;;;;4930012;29;20487;-72
2023/05/18 05:14:59;;;;;;;9.52;5.00;;;15.40;99.90;;;;;;4920315;29;20089;-71
2023/05/18 05:17:34;;;;;;;11.85;5.68;;;15.80;99.90;;;;;;4937349;29;20055;-71
2023/05/18 05:20:05;;;;;;;20.20;6.40;;;15.60;99.90;;;;;;4955869;28;20484;-77
2023/05/18 05:22:42;;;;;;;;;;;15.90;99.90;;;;;;4966908;28;20404;-78
2023/05/18 05:25:51;;;;;;;5.30;2.70;;;15.40;99.90;;;;;;4980615;28;19969;-77
2023/05/18 05:29:19;;;;;;;6.55;2.63;;;15.40;99.90;;;;;;4998289;23;20055;-82
2023/05/18 05:32:04;;;;;;;3.75;2.50;;;15.40;99.90;;;;;;4906887;29;20048;-77
2023/05/18 05:34:42;;;;;;;5.45;2.60;;;15.50;99.90;;;;;;4926127;29;20586;-77
2023/05/18 05:37:59;;;;;;;10.07;2.92;;;15.40;99.90;;;;;;4948222;23;20054;-76
2023/05/18 05:40:30;;;;;;;5.75;2.58;;;15.50;99.90;;;;;;4908628;29;20050;-76
2023/05/18 05:43:04;;;;;;;5.80;2.70;;;15.40;99.90;;;;;;4935012;29;20043;-76
2023/05/18 05:45:51;;;;;;;5.00;2.80;;;15.40;99.90;;;;;;4940185;29;20103;-78
2023/05/18 05:48:42;;;;;;;4.68;3.10;;;15.30;99.90;;;;;;4926795;29;20103;-75
2023/05/18 05:51:52;;;;;;;;;;;;;;;;;;;;;
2023/05/18 05:55:12;;;;;;;3.47;2.70;;;15.50;99.90;;;;;;4942776;29;20059;-75
2023/05/18 05:58:05;;;;;;;5.40;3.22;;;15.60;99.90;;;;;;4934149;29;20051;-79
2023/05/18 06:00:52;;;;;;;6.35;3.83;;;15.60;99.90;;;;;;4931580;29;20498;-80
2023/05/18 06:04:39;;;;;;;7.85;3.50;;;15.50;99.90;;;;;;4921805;29;20138;-75
2023/05/18 06:07:44;;;;;;;5.95;3.80;;;15.50;99.90;;;;;;4944751;29;20036;-77
2023/05/18 06:10:29;;;;;;;7.05;3.90;;;15.70;99.90;;;;;;4936337;29;20517;-79
2023/05/18 06:13:42;;;;;;;;;;;;;;;;;;;;;
2023/05/18 06:16:36;;;;;;;9.77;4.20;;;15.80;99.90;;;;;;4916867;29;20080;-77
2023/05/18 06:19:04;;;;;;;8.32;3.80;;;15.80;99.90;;;;;;4927909;29;20052;-78
2023/05/18 06:21:32;;;;;;;5.85;3.97;;;15.80;99.90;;;;;;4937711;29;20058;-77
2023/05/18 06:24:05;;;;;;;6.38;4.03;;;15.80;99.90;;;;;;4936232;29;20527;-76
2023/05/18 06:26:41;;;;;;;7.45;4.13;;;16.00;99.90;;;;;;4939989;29;20054;-80
2023/05/18 06:29:17;;;;;;;8.50;3.92;;;16.10;99.90;;;;;;4929253;29;20036;-76
2023/05/18 06:32:11;;;;;;;7.50;3.90;;;16.10;99.90;;;;;;4904137;29;20044;-78
2023/05/18 06:35:31;;;;;;;9.20;4.13;;;16.10;99.90;;;;;;4936181;29;20127;-76
2023/05/18 06:39:29;;;;;;;7.05;3.50;;;15.90;99.90;;;;;;4926239;29;20048;-79
2023/05/18 06:42:36;;;;;;;4.93;3.40;;;15.80;99.90;;;;;;4928165;29;20051;-75
2023/05/18 06:45:40;;;;;;;5.93;3.53;;;15.80;99.90;;;;;;4906111;29;20046;-75
2023/05/18 06:48:37;;;;;;;8.15;4.05;;;15.90;99.90;;;;;;4938664;29;20055;-78
2023/05/18 06:52:05;;;;;;;5.63;3.72;;;15.90;99.90;;;;;;4958002;29;20042;-75
2023/05/18 06:55:02;;;;;;;6.82;3.63;;;15.90;99.90;;;;;;4933604;23;20069;-76
2023/05/18 06:58:06;;;;;;;6.35;3.70;;;15.80;99.90;;;;;;4953970;28;20039;-76
2023/05/18 07:04:06;;;;;;;6.80;3.90;;;16.10;99.90;;;;;;5003760;23;20052;-75
2023/05/18 07:06:39;;;;;;;4.63;3.30;;;16.40;99.90;;;;;;4911348;29;20048;-76
2023/05/18 07:09:09;;;;;;;4.63;3.05;;;16.40;99.90;;;;;;4928272;29;20039;-75
2023/05/18 07:12:13;;;;;;;6.28;3.40;;;16.30;99.90;;;;;;4943417;29;20095;-78
2023/05/18 07:15:18;;;;;;;5.43;3.25;;;16.20;99.90;;;;;;4924737;29;20579;-79
2023/05/18 07:17:52;;;;;;;6.15;3.20;;;16.20;99.90;;;;;;4935674;29;20061;-78
2023/05/18 07:21:05;;;;;;;6.93;3.45;;;16.30;99.90;;;;;;4925637;29;20044;-77
2023/05/18 07:28:13;;;;;;;7.15;3.10;;;16.20;99.90;;;;;;4946567;29;20108;-76
2023/05/18 07:31:19;;;;;;;5.32;3.20;;;16.30;99.90;;;;;;4921474;29;20059;-75
2023/05/18 07:34:19;;;;;;;5.63;3.40;;;16.30;99.90;;;;;;4917128;29;20408;-74
2023/05/18 07:37:39;;;;;;;4.95;3.10;;;16.60;99.90;;;;;;4907817;29;20048;-74
2023/05/18 07:40:24;;;;;;;4.40;3.10;;;16.60;99.90;;;;;;4960348;23;20547;-76
2023/05/18 07:43:38;;;;;;;7.20;3.00;;;16.40;99.90;;;;;;4930169;29;20075;-75
2023/05/18 07:46:40;;;;;;;5.05;3.00;;;16.50;99.90;;;;;;4950966;29;20071;-77
2023/05/18 07:49:41;;;;;;;4.35;3.20;;;16.40;99.90;;;;;;4943242;29;20053;-76
2023/05/18 07:59:33;;;;;;;6.13;3.15;;;16.60;99.90;;;;;;4983662;23;20142;-76
2023/05/18 08:02:50;;;;;;;7.18;3.35;;;16.60;99.90;;;;;;4924687;28;20146;-73
2023/05/18 08:09:21;;;;;;;5.35;3.05;;;16.90;99.90;;;;;;4945186;29;20134;-75
2023/05/18 08:12:25;;;;;;;6.10;2.80;;;17.20;99.90;;;;;;4939181;29;20055;-75
2023/05/18 08:15:41;;;;;;;4.97;2.70;;;17.30;99.90;;;;;;4936248;29;20036;-73
2023/05/18 08:18:31;;;;;;;6.00;3.40;;;17.20;99.90;;;;;;4940591;29;20048;-80
2023/05/18 08:21:59;;;;;;;3.42;2.30;;;17.40;99.90;;;;;;4922027;29;20056;-74
2023/05/18 08:29:30;;;;;;;3.10;2.30;;;17.80;99.90;;;;;;4954336;29;20056;-74
2023/05/18 08:32:27;;;;;;;4.20;2.80;;;17.60;99.90;;;;;;4960975;28;20095;-81
2023/05/18 08:35:29;;;;;;;4.45;2.38;;;17.60;99.90;;;;;;4949448;28;20058;-75
2023/05/18 08:38:44;;;;;;;9.90;2.67;;;17.50;99.90;;;;;;4956431;29;20039;-78
2023/05/18 08:41:50;;;;;;;3.40;2.50;;;17.60;99.90;;;;;;4937078;29;20115;-75
2023/05/18 08:45:01;;;;;;;3.42;2.60;;;17.50;99.90;;;;;;4950406;29;20075;-75
2023/05/18 08:47:50;;;;;;;5.78;2.97;;;17.30;99.90;;;;;;4954228;29;20051;-79
2023/05/18 08:50:20;;;;;;;5.25;2.72;;;17.60;99.90;;;;;;4949276;29;20040;-76
2023/05/18 08:53:15;;;;;;;4.53;2.83;;;17.70;99.90;;;;;;4917231;23;20087;-74
2023/05/18 08:55:58;;;;;;;5.15;2.50;;;17.30;99.90;;;;;;4914645;29;20123;-75
2023/05/18 08:59:02;;;;;;;4.57;3.20;;;17.30;99.90;;;;;;4923407;29;20052;-76
2023/05/18 09:01:36;;;;;;;3.75;2.55;;;17.50;99.90;;;;;;4904956;29;20128;-75
2023/05/18 09:04:33;;;;;;;4.68;2.70;;;17.30;99.90;;;;;;4918560;29;20047;-76
2023/05/18 09:07:16;;;;;;;3.53;2.72;;;17.30;99.90;;;;;;4899822;29;20049;-74
2023/05/18 09:10:47;;;;;;;3.72;2.47;;;17.00;99.90;;;;;;4954955;23;20052;-75
2023/05/18 09:14:15;;;;;;;4.75;2.42;;;17.20;99.90;;;;;;4909519;29;20045;-77
2023/05/18 09:17:33;;;;;;;4.18;2.60;;;17.10;99.90;;;;;;4878640;29;20049;-74
2023/05/18 09:20:56;;;;;;;4.13;2.83;;;17.10;99.90;;;;;;4906306;29;20052;-76
2023/05/18 09:23:56;;;;;;;4.32;2.80;;;17.30;99.90;;;;;;4894217;29;20045;-73
2023/05/18 09:26:38;;;;;;;5.30;2.70;;;17.30;99.90;;;;;;4913850;29;20060;-72
2023/05/18 09:29:27;;;;;;;4.30;2.92;;;17.10;99.90;;;;;;4897074;29;20045;-71
2023/05/18 09:32:07;;;;;;;5.57;2.58;;;17.40;99.90;;;;;;4920764;29;20489;-73
2023/05/18 09:34:41;;;;;;;3.67;2.40;;;17.80;99.90;;;;;;4901345;29;20044;-70
2023/05/18 09:37:09;;;;;;;3.85;2.35;;;17.20;99.90;;;;;;4890624;29;20065;-75
2023/05/18 09:39:46;;;;;;;5.05;2.30;;;17.10;99.90;;;;;;4917282;29;20067;-72
2023/05/18 09:42:47;;;;;;;4.30;2.45;;;17.30;99.90;;;;;;4884430;29;20053;-75
2023/05/18 09:45:48;;;;;;;4.85;2.70;;;17.10;99.90;;;;;;4905523;29;20053;-78
2023/05/18 09:48:21;;;;;;;3.70;2.53;;;17.20;99.90;;;;;;4918945;29;20041;-74
2023/05/18 09:51:16;;;;;;;4.53;2.42;;;17.20;99.90;;;;;;4891052;29;20049;-74
2023/05/18 09:55:07;;;;;;;4.30;2.53;;;17.10;99.90;;;;;;4908027;29;20044;-73
2023/05/18 09:58:25;;;;;;;3.20;2.50;;;17.10;99.90;;;;;;4889941;29;20060;-75
2023/05/18 10:01:40;;;;;;;4.93;2.47;;;17.30;99.90;;;;;;4897903;29;20048;-75
2023/05/18 10:04:54;;;;;;;4.15;2.33;;;17.90;99.90;;;;;;4896067;29;20064;-77
2023/05/18 10:08:22;;;;;;;6.40;2.25;;;17.90;99.90;;;;;;4862167;29;20117;-75
2023/05/18 10:15:47;;;;;;;6.00;2.08;;;17.70;99.90;;;;;;4870179;29;20065;-78
2023/05/18 10:18:52;;;;;;;11.95;2.05;;;17.90;99.90;;;;;;4921806;23;20054;-76
2023/05/18 10:21:46;;;;;;;;;;;;;;;;;;;;;
2023/05/18 10:29:30;;;;;;;2.45;1.70;;;18.40;99.90;;;;;;5346964;23;20072;-80
2023/05/18 10:44:02;;;;;;;2.25;1.70;;;19.00;99.90;;;;;;4946271;29;20063;-78
2023/05/18 10:48:35;;;;;;;;;;;;;;;;;;;;;
2023/05/18 11:01:48;;;;;;;1.88;1.38;;;20.20;99.90;;;;;;5278015;23;20063;-81
2023/05/18 11:09:01;;;;;;;1.80;1.30;;;19.70;99.90;;;;;;4870951;29;20109;-77
2023/05/18 11:12:13;;;;;;;3.10;1.70;;;19.70;99.90;;;;;;4857935;29;20049;-75
2023/05/18 11:15:49;;;;;;;9.88;1.70;;;20.10;99.90;;;;;;4871661;29;20029;-76
2023/05/18 11:22:44;;;;;;;8.47;1.73;;;20.20;99.90;;;;;;4813531;29;20138;-83
2023/05/18 11:26:11;;;;;;;2.85;1.83;;;19.50;99.90;;;;;;4877622;29;20131;-77
2023/05/18 11:28:55;;;;;;;4.63;1.50;;;19.10;99.90;;;;;;4869407;29;20444;-78
2023/05/18 11:49:07;;;;;;;7.68;1.88;;;19.30;99.90;;;;;;5561073;23;20048;-82
2023/05/18 12:05:40;;;;;;;2.78;1.50;;;19.10;99.90;;;;;;5698669;23;20043;-83
2023/05/18 13:54:00;;;;;;;5.75;2.78;;;17.90;99.90;;;;;;4895844;29;20041;-80
2023/05/18 14:05:49;;;;;;;5.72;3.20;;;17.70;99.90;;;;;;4964206;29;20038;-78
2023/05/18 14:14:30;;;;;;;4.65;3.17;;;18.10;99.90;;;;;;5067606;23;20047;-79
2023/05/18 14:26:12;;;;;;;4.95;3.20;;;18.20;99.90;;;;;;5313334;23;20041;-81
2023/05/18 14:39:13;;;;;;;7.65;3.08;;;17.40;99.90;;;;;;5840121;23;19914;-80
2023/05/18 14:43:15;;;;;;;4.40;3.10;;;17.60;99.90;;;;;;4883581;29;20035;-75
2023/05/18 14:46:09;;;;;;;5.25;2.90;;;17.50;99.90;;;;;;4899755;29;20052;-78
2023/05/18 14:57:46;;;;;;;5.03;2.80;;;17.00;99.90;;;;;;4956652;28;20112;-80
2023/05/18 15:00:53;;;;;;;5.28;3.40;;;17.00;99.90;;;;;;4935325;29;20059;-79
2023/05/18 15:03:44;;;;;;;9.05;3.72;;;16.90;99.90;;;;;;4939726;29;20055;-79
2023/05/18 15:06:15;;;;;;;5.00;3.40;;;17.00;99.90;;;;;;4939521;29;20051;-79
2023/05/18 15:26:07;;;;;;;6.43;3.75;;;16.60;99.90;;;;;;4896329;29;20104;-82
2023/05/18 15:34:40;;;;;;;9.27;4.05;;;16.40;99.90;;;;;;4934413;29;20138;-83
2023/05/18 15:49:40;;;;;;;7.57;5.68;;;16.00;99.90;;;;;;4911073;29;20140;-79
2023/05/18 15:53:48;;;;;;;7.78;5.60;;;16.00;99.90;;;;;;4927543;29;20043;-82
2023/05/18 16:00:46;;;;;;;9.50;7.13;;;15.70;99.90;;;;;;4957959;29;20024;-78
2023/05/18 16:13:54;;;;;;;7.63;5.15;;;15.70;99.90;;;;;;4921147;29;20044;-79
2023/05/18 16:32:00;;;;;;;9.30;6.90;;;15.30;99.90;;;;;;5053461;23;20417;-80
2023/05/18 16:48:45;;;;;;;7.55;5.13;;;15.20;99.90;;;;;;5249802;23;20054;-80
2023/05/18 16:51:40;;;;;;;8.50;5.10;;;15.30;99.90;;;;;;4956545;29;20043;-79
2023/05/18 16:55:17;;;;;;;6.35;4.88;;;15.10;99.90;;;;;;4967497;28;20043;-80
2023/05/18 16:59:23;;;;;;;7.72;5.55;;;15.10;99.90;;;;;;4943655;28;20075;-81
2023/05/18 17:07:06;;;;;;;7.60;5.05;;;15.20;99.90;;;;;;4932151;29;20055;-80
2023/05/18 17:10:40;;;;;;;6.65;4.43;;;15.10;99.90;;;;;;4886730;29;20051;-81
2023/05/18 17:46:17;;;;;;;6.93;5.15;;;14.70;99.90;;;;;;4606060;27;20032;-79
2023/05/18 17:52:39;;;;;;;9.48;6.43;;;14.70;99.90;;;;;;5180832;23;20062;-80
2023/05/18 18:03:27;;;;;;;9.23;5.65;;;14.80;99.90;;;;;;4969943;23;20051;-81
2023/05/18 18:21:50;;;;;;;8.68;5.97;;;14.90;99.90;;;;;;5212803;23;20030;-84
2023/05/18 18:37:07;;;;;;;6.50;4.80;;;15.10;99.90;;;;;;5194103;23;20047;-78
2023/05/18 18:43:05;;;;;;;7.20;6.00;;;15.00;99.90;;;;;;5789777;23;20428;-81
2023/05/18 18:47:21;;;;;;;8.52;6.35;;;14.80;99.90;;;;;;4921232;29;20124;-79
2023/05/18 18:50:56;;;;;;;6.82;5.43;;;14.70;99.90;;;;;;4947284;29;20046;-82
2023/05/18 19:14:56;;;;;;;10.15;7.35;;;14.90;99.90;;;;;;5812780;23;20103;-79
2023/05/18 19:17:59;;;;;;;7.78;5.85;;;15.00;99.90;;;;;;4953918;29;20078;-81
2023/05/18 19:26:40;;;;;;;7.88;6.50;;;14.80;99.90;;;;;;5150002;23;20030;-81
2023/05/18 19:30:19;;;;;;;8.98;6.68;;;14.80;99.90;;;;;;4941126;23;20465;-80
2023/05/18 19:33:53;;;;;;;10.38;7.00;;;14.80;99.90;;;;;;4927676;29;20112;-82
2023/05/18 19:43:18;;;;;;;17.02;11.55;;;14.90;99.90;;;;;;5415759;23;20537;-78
2023/05/18 20:32:06;;;;;;;;;;;;;;;;;;;;;
2023/05/18 20:53:24;;;;;;;14.65;10.25;;;14.70;99.90;;;;;;5493705;23;20064;-78
2023/05/18 21:16:58;;;;;;;12.07;7.82;;;14.60;99.90;;;;;;4927033;26;20044;-79
2023/05/18 22:38:53;;;;;;;7.72;5.80;;;14.50;99.90;;;;;;1151430;27;20060;-81
2023/05/18 22:42:39;;;;;;;9.77;6.60;;;14.50;99.90;;;;;;4872078;29;20078;-80
2023/05/18 23:07:56;;;;;;;10.75;5.82;;;14.60;99.90;;;;;;4881043;29;20107;-80
2023/05/18 23:20:43;;;;;;;10.52;6.25;;;14.60;99.90;;;;;;5048738;23;20400;-78
2023/05/18 23:24:20;;;;;;;7.30;5.38;;;14.50;99.90;;;;;;4930150;29;20080;-78
2023/05/18 23:27:12;;;;;;;7.90;5.50;;;14.60;99.90;;;;;;4889063;29;20063;-78
2023/05/18 23:30:15;;;;;;;8.70;5.95;;;14.60;99.90;;;;;;4928798;29;20155;-85
2023/05/18 23:55:27;;;;;;;10.32;5.55;;;14.60;99.90;;;;;;5911792;23;20028;-83
2023/05/18 23:58:55;;;;;;;10.88;5.65;;;14.50;99.90;;;;;;4870457;29;20037;-82
